Time;durP1;ratioP1;P1;durP2;ratioP2;P2;SDS_P1;SDS_P2;PMS_P1;PMS_P2;Temp;Humidity;BMP_temperature;BMP_pressure;BME280_temperature;BME280_humidity;BME280_pressure;Samples;Min_cycle;Max_cycle;Signal;HPM_P1;HPM_P2
2023/01/01 00:04:12;;;;;;;18.98;10.63;;;12.40;99.90;;;;;;11110407;22;20079;-72
2023/01/01 00:14:32;;;;;;;21.80;12.05;;;12.60;99.90;;;;;;10465966;28;20032;-73
2023/01/01 00:19:33;;;;;;;21.30;12.55;;;12.80;99.90;;;;;;10470519;28;20289;-73
2023/01/01 00:24:33;;;;;;;21.33;12.95;;;12.60;99.90;;;;;;10466466;28;20036;-73
2023/01/01 00:29:34;;;;;;;23.33;12.10;;;12.60;99.90;;;;;;10466149;28;20065;-73
2023/01/01 00:34:34;;;;;;;20.63;12.55;;;12.50;99.90;;;;;;10471962;28;20082;-72
2023/01/01 00:39:35;;;;;;;23.30;13.35;;;12.50;99.90;;;;;;10468316;28;20041;-73
2023/01/01 00:44:35;;;;;;;24.80;14.55;;;12.60;99.90;;;;;;10466330;28;20025;-73
2023/01/01 00:49:36;;;;;;;22.65;13.77;;;12.60;99.90;;;;;;10455118;28;20017;-73
2023/01/01 00:54:37;;;;;;;27.67;15.40;;;12.50;99.90;;;;;;10463130;28;20052;-73
2023/01/01 00:59:37;;;;;;;25.30;13.82;;;12.50;99.90;;;;;;10470668;28;20024;-73
2023/01/01 01:04:38;;;;;;;26.10;15.10;;;12.60;99.90;;;;;;10481849;28;20052;-73
2023/01/01 01:09:38;;;;;;;25.75;15.38;;;12.50;99.90;;;;;;10482092;28;20525;-73
2023/01/01 01:14:39;;;;;;;25.17;15.23;;;12.50;99.90;;;;;;10482609;28;20035;-74
2023/01/01 01:19:40;;;;;;;27.02;16.35;;;12.60;99.90;;;;;;10476693;28;20070;-73
2023/01/01 01:24:40;;;;;;;30.98;15.95;;;12.50;99.90;;;;;;10473330;28;20048;-73
2023/01/01 01:29:41;;;;;;;29.83;16.23;;;12.50;99.90;;;;;;10465390;28;20040;-73
2023/01/01 01:34:41;;;;;;;30.75;16.80;;;12.70;99.90;;;;;;10477268;28;20032;-72
2023/01/01 01:39:42;;;;;;;27.40;16.25;;;12.60;99.90;;;;;;10462288;28;20155;-72
2023/01/01 01:44:46;;;;;;;27.08;15.98;;;12.50;99.90;;;;;;10478291;28;20021;-72
2023/01/01 01:49:48;;;;;;;29.17;16.02;;;12.70;99.90;;;;;;10476736;28;20032;-73
2023/01/01 01:54:49;;;;;;;28.42;15.57;;;12.60;99.90;;;;;;10464839;28;20073;-73
2023/01/01 01:59:53;;;;;;;28.50;15.73;;;12.50;99.90;;;;;;10471149;28;20107;-73
2023/01/01 02:04:54;;;;;;;27.92;15.57;;;12.50;99.90;;;;;;10475857;28;20166;-73
2023/01/01 02:09:56;;;;;;;29.40;15.43;;;12.60;99.90;;;;;;10476355;28;20074;-72
2023/01/01 02:14:58;;;;;;;28.80;14.68;;;12.50;99.90;;;;;;10467304;28;20037;-73
2023/01/01 02:20:19;;;;;;;26.27;14.57;;;12.50;99.90;;;;;;10470463;28;20097;-73
2023/01/01 02:25:41;;;;;;;29.75;14.45;;;12.50;99.90;;;;;;10471229;28;20064;-73
2023/01/01 02:30:44;;;;;;;25.80;14.68;;;12.50;99.90;;;;;;10457866;28;20013;-72
2023/01/01 02:35:50;;;;;;;26.27;14.10;;;12.50;99.90;;;;;;10483052;28;20009;-72
2023/01/01 02:41:17;;;;;;;24.25;14.30;;;12.40;99.90;;;;;;10470328;28;20405;-72
2023/01/01 02:46:18;;;;;;;21.55;12.73;;;12.50;99.90;;;;;;10456865;28;20037;-73
2023/01/01 02:51:34;;;;;;;21.13;13.05;;;12.50;99.90;;;;;;10467812;28;20041;-73
2023/01/01 02:56:50;;;;;;;21.85;11.88;;;12.50;99.90;;;;;;10458879;28;20013;-73
2023/01/01 03:02:21;;;;;;;24.50;12.48;;;12.50;99.90;;;;;;10465342;28;20020;-72
2023/01/01 03:07:57;;;;;;;18.38;10.20;;;12.50;99.90;;;;;;10480279;28;20513;-73
2023/01/01 03:13:12;;;;;;;17.77;10.68;;;12.50;99.90;;;;;;10474584;28;20500;-73
2023/01/01 03:18:36;;;;;;;16.77;9.68;;;12.50;99.90;;;;;;10470407;28;20024;-72
2023/01/01 03:23:41;;;;;;;17.90;10.10;;;12.60;99.90;;;;;;10472776;28;20032;-73
2023/01/01 03:28:52;;;;;;;20.92;9.57;;;12.50;99.90;;;;;;10455373;28;20024;-73
2023/01/01 03:34:00;;;;;;;16.02;9.50;;;12.60;99.90;;;;;;10457816;28;20037;-73
2023/01/01 03:39:11;;;;;;;16.83;8.25;;;12.60;99.90;;;;;;10464659;28;20478;-73
2023/01/01 03:44:28;;;;;;;15.95;8.55;;;12.60;99.90;;;;;;10448818;28;20024;-73
2023/01/01 03:49:29;;;;;;;17.42;9.15;;;12.50;99.90;;;;;;10452159;28;20047;-72
2023/01/01 03:54:52;;;;;;;17.02;7.75;;;12.60;99.90;;;;;;10449361;28;20390;-73
2023/01/01 04:00:03;;;;;;;11.88;7.00;;;12.60;99.90;;;;;;10454500;28;20422;-73
2023/01/01 04:05:06;;;;;;;12.93;7.00;;;12.60;99.90;;;;;;10475352;28;20040;-73
2023/01/01 04:10:16;;;;;;;15.65;6.90;;;12.60;99.90;;;;;;10463477;28;20021;-73
2023/01/01 04:15:18;;;;;;;14.23;7.15;;;12.60;99.90;;;;;;10469686;28;20046;-72
2023/01/01 04:20:20;;;;;;;11.82;6.47;;;12.60;99.90;;;;;;10457907;28;20382;-72
2023/01/01 04:25:21;;;;;;;11.23;5.97;;;12.70;99.90;;;;;;10453577;28;20020;-72
2023/01/01 04:30:21;;;;;;;13.18;6.25;;;12.60;99.90;;;;;;10466124;28;20036;-72
2023/01/01 04:35:22;;;;;;;10.95;5.78;;;12.60;99.90;;;;;;10479803;28;20037;-72
2023/01/01 04:40:23;;;;;;;10.38;5.18;;;12.60;99.90;;;;;;10472866;28;20455;-71
2023/01/01 04:45:23;;;;;;;12.45;6.13;;;12.60;99.90;;;;;;10466611;28;20206;-72
2023/01/01 04:50:24;;;;;;;12.38;5.43;;;12.60;99.90;;;;;;10475448;28;20025;-72
2023/01/01 04:55:24;;;;;;;11.65;5.35;;;12.60;99.90;;;;;;10463758;28;20033;-72
2023/01/01 05:00:25;;;;;;;9.63;4.75;;;12.80;99.90;;;;;;10477124;28;20624;-72
2023/01/01 05:05:25;;;;;;;8.10;4.70;;;12.60;99.90;;;;;;10458991;28;20029;-72
2023/01/01 05:10:26;;;;;;;8.70;4.00;;;12.60;99.90;;;;;;10474360;28;20122;-72
2023/01/01 05:15:27;;;;;;;9.40;4.80;;;12.60;99.90;;;;;;10467366;28;20033;-72
2023/01/01 05:20:27;;;;;;;9.90;5.10;;;12.60;99.90;;;;;;10459280;28;20219;-72
2023/01/01 05:25:28;;;;;;;7.18;3.83;;;12.60;99.90;;;;;;10472212;28;20056;-72
2023/01/01 05:30:29;;;;;;;6.18;3.90;;;12.60;99.90;;;;;;10464037;28;20082;-72
2023/01/01 05:35:29;;;;;;;6.15;3.67;;;12.60;99.90;;;;;;10478939;28;20029;-72
2023/01/01 05:40:30;;;;;;;6.95;3.83;;;12.60;99.90;;;;;;10464548;28;20025;-72
2023/01/01 05:45:30;;;;;;;9.52;3.35;;;12.70;99.90;;;;;;10453421;28;20119;-72
2023/01/01 05:50:31;;;;;;;7.25;3.55;;;12.60;99.90;;;;;;10461044;28;20410;-73
2023/01/01 05:55:32;;;;;;;5.75;2.95;;;12.50;99.90;;;;;;10459782;28;20032;-72
2023/01/01 06:00:32;;;;;;;7.95;3.20;;;13.40;99.90;;;;;;10466916;28;20024;-72
2023/01/01 06:05:34;;;;;;;9.32;4.22;;;12.60;99.90;;;;;;10480299;28;20028;-72
2023/01/01 06:10:35;;;;;;;5.28;3.13;;;12.50;99.90;;;;;;10464027;28;20024;-72
2023/01/01 06:15:35;;;;;;;5.85;2.75;;;12.60;99.90;;;;;;10470506;28;20028;-72
2023/01/01 06:20:36;;;;;;;6.97;2.90;;;12.50;99.90;;;;;;10477002;28;20516;-72
2023/01/01 06:25:37;;;;;;;6.15;2.45;;;12.50;99.90;;;;;;10474766;28;20484;-72
2023/01/01 06:30:37;;;;;;;8.00;2.97;;;12.50;99.90;;;;;;10465197;28;20055;-72
2023/01/01 06:35:38;;;;;;;5.93;2.63;;;12.50;99.90;;;;;;10457987;28;20377;-71
2023/01/01 06:40:38;;;;;;;5.47;3.08;;;12.50;99.90;;;;;;10470365;28;20039;-71
2023/01/01 06:45:39;;;;;;;5.47;2.38;;;12.50;99.90;;;;;;10464858;28;20424;-72
2023/01/01 06:50:39;;;;;;;5.22;2.38;;;12.50;99.90;;;;;;10464166;28;20092;-72
2023/01/01 06:55:47;;;;;;;5.97;2.83;;;12.50;99.90;;;;;;10469432;28;20408;-72
2023/01/01 07:00:48;;;;;;;3.85;1.92;;;12.50;99.90;;;;;;10465324;28;20013;-72
2023/01/01 07:05:48;;;;;;;5.60;2.10;;;12.50;99.90;;;;;;10460859;28;20036;-71
2023/01/01 07:10:49;;;;;;;4.97;2.28;;;12.50;99.90;;;;;;10473014;28;20389;-72
2023/01/01 07:15:50;;;;;;;4.78;2.80;;;12.40;99.90;;;;;;10473106;28;20079;-72
2023/01/01 07:20:53;;;;;;;4.72;2.30;;;12.40;99.90;;;;;;10472184;28;20026;-71
2023/01/01 07:25:54;;;;;;;5.88;1.98;;;12.40;99.90;;;;;;10476667;28;20569;-72
2023/01/01 07:30:55;;;;;;;5.35;2.13;;;12.40;99.90;;;;;;10480490;28;20074;-72
2023/01/01 07:35:55;;;;;;;5.35;2.17;;;12.50;99.90;;;;;;10473755;28;20358;-72
2023/01/01 07:40:56;;;;;;;4.15;1.80;;;12.40;99.90;;;;;;10470317;28;20310;-72
2023/01/01 07:45:57;;;;;;;2.92;1.85;;;12.40;99.90;;;;;;10474459;28;20032;-72
2023/01/01 07:50:58;;;;;;;5.15;1.83;;;12.40;99.90;;;;;;10475889;28;20108;-73
2023/01/01 07:55:59;;;;;;;5.18;1.67;;;12.40;99.90;;;;;;10454685;28;20082;-72
2023/01/01 08:00:59;;;;;;;4.60;1.80;;;12.40;99.90;;;;;;10464143;28;20369;-72
2023/01/01 08:06:06;;;;;;;2.83;1.83;;;12.40;99.90;;;;;;10467708;28;20040;-72
2023/01/01 08:11:07;;;;;;;3.22;1.77;;;12.40;99.90;;;;;;10481180;28;20077;-72
2023/01/01 08:21:12;;;;;;;3.00;1.80;;;12.40;99.90;;;;;;10469530;28;20060;-67
2023/01/01 08:26:17;;;;;;;4.45;1.65;;;12.40;99.90;;;;;;10456752;28;20552;-67
2023/01/01 08:31:18;;;;;;;4.60;2.70;;;12.40;99.90;;;;;;10474232;28;20021;-68
2023/01/01 08:36:19;;;;;;;3.80;1.83;;;12.30;99.90;;;;;;10461167;28;20249;-68
2023/01/01 08:41:20;;;;;;;3.65;1.60;;;12.40;99.90;;;;;;10479749;28;20024;-68
2023/01/01 08:46:20;;;;;;;2.78;1.50;;;12.40;99.90;;;;;;10473922;28;20024;-68
2023/01/01 08:51:21;;;;;;;3.95;1.52;;;12.40;99.90;;;;;;10482030;28;20024;-67
2023/01/01 08:56:22;;;;;;;2.75;1.30;;;12.30;99.90;;;;;;10473077;28;20032;-67
2023/01/01 09:01:25;;;;;;;3.25;1.63;;;12.30;99.90;;;;;;10469969;28;20025;-67
2023/01/01 09:06:25;;;;;;;3.13;1.38;;;12.30;99.90;;;;;;10478797;28;20492;-68
2023/01/01 09:11:27;;;;;;;2.53;1.30;;;12.30;99.90;;;;;;10476917;28;20099;-68
2023/01/01 09:16:27;;;;;;;5.60;1.58;;;12.30;99.90;;;;;;10473150;28;20023;-67
2023/01/01 09:21:28;;;;;;;3.25;1.33;;;12.30;99.90;;;;;;10477268;28;20411;-67
2023/01/01 09:26:29;;;;;;;5.40;1.48;;;12.30;99.90;;;;;;10483102;28;20028;-68
2023/01/01 09:31:29;;;;;;;4.00;1.20;;;12.70;99.90;;;;;;10463691;28;20155;-67
2023/01/01 09:36:31;;;;;;;4.43;1.58;;;12.30;99.90;;;;;;10462351;28;20505;-67
2023/01/01 09:41:52;;;;;;;2.15;1.30;;;12.30;99.90;;;;;;10464147;28;20073;-68
2023/01/01 09:46:59;;;;;;;2.97;1.33;;;12.30;99.90;;;;;;10458177;28;20165;-68
2023/01/01 09:52:04;;;;;;;1.90;0.93;;;12.30;99.90;;;;;;10465859;28;20368;-67
2023/01/01 09:57:09;;;;;;;4.88;1.52;;;12.40;99.90;;;;;;10473192;28;20083;-68
2023/01/01 10:02:19;;;;;;;4.47;1.40;;;12.40;99.90;;;;;;10470103;28;20109;-67
2023/01/01 10:07:45;;;;;;;1.67;1.17;;;12.40;99.90;;;;;;10478957;28;20028;-68
2023/01/01 10:13:23;;;;;;;5.15;1.38;;;12.40;99.90;;;;;;10452270;28;20036;-68
2023/01/01 10:18:32;;;;;;;4.05;0.90;;;12.40;99.90;;;;;;10467669;28;20028;-68
2023/01/01 10:23:54;;;;;;;2.55;1.00;;;12.40;99.90;;;;;;10475017;28;20029;-69
2023/01/01 10:29:21;;;;;;;3.78;1.13;;;12.40;99.90;;;;;;10472933;28;20037;-68
2023/01/01 10:34:27;;;;;;;2.20;1.00;;;12.40;99.90;;;;;;10477060;28;20021;-69
2023/01/01 10:39:28;;;;;;;2.03;1.10;;;12.20;99.90;;;;;;10471271;28;20079;-68
2023/01/01 10:44:33;;;;;;;4.90;1.00;;;12.40;99.90;;;;;;10467080;28;20029;-69
2023/01/01 10:49:52;;;;;;;3.55;0.90;;;12.50;99.90;;;;;;10473551;28;20464;-69
2023/01/01 10:54:52;;;;;;;;;;;12.60;99.90;;;;;;10466278;28;20848;-67
2023/01/01 10:59:53;;;;;;;4.00;0.95;;;12.50;99.90;;;;;;10480587;28;19920;-67
2023/01/01 11:05:29;;;;;;;3.22;1.08;;;12.80;99.90;;;;;;10476326;28;20036;-68
2023/01/01 11:10:30;;;;;;;3.60;1.35;;;12.50;99.90;;;;;;10351754;28;20339;-68
2023/01/01 11:15:41;;;;;;;3.80;1.10;;;12.60;99.90;;;;;;10476996;28;20028;-68
2023/01/01 11:20:42;;;;;;;2.58;0.90;;;13.70;99.90;;;;;;10473616;28;20078;-68
2023/01/01 11:25:56;;;;;;;2.65;1.00;;;12.70;99.90;;;;;;10477193;28;20051;-68
2023/01/01 11:31:08;;;;;;;7.30;1.10;;;12.70;99.90;;;;;;10474111;28;20020;-68
2023/01/01 11:36:09;;;;;;;2.80;0.95;;;12.70;99.90;;;;;;10474082;28;20024;-68
2023/01/01 11:41:10;;;;;;;2.08;0.77;;;12.90;99.90;;;;;;10470218;28;20041;-68
2023/01/01 11:46:23;;;;;;;2.88;0.90;;;12.80;99.90;;;;;;10463474;28;20391;-68
2023/01/01 11:51:31;;;;;;;3.75;0.77;;;12.70;99.90;;;;;;10470091;28;20021;-69
2023/01/01 11:56:32;;;;;;;5.43;0.93;;;12.70;99.90;;;;;;10470608;28;20109;-68
2023/01/01 12:01:51;;;;;;;5.00;0.70;;;12.60;99.90;;;;;;10452946;28;20155;-68
2023/01/01 12:06:58;;;;;;;2.65;0.65;;;12.70;99.90;;;;;;10476503;28;20028;-68
2023/01/01 12:12:33;;;;;;;4.80;0.80;;;12.60;99.90;;;;;;10473745;28;20036;-68
2023/01/01 12:17:41;;;;;;;3.55;1.15;;;12.70;99.90;;;;;;10471223;28;20028;-68
2023/01/01 12:22:42;;;;;;;3.57;1.10;;;12.60;99.90;;;;;;10476372;28;20035;-68
2023/01/01 12:27:53;;;;;;;3.97;1.15;;;12.60;99.90;;;;;;10457557;28;21038;-68
2023/01/01 12:33:11;;;;;;;3.28;0.88;;;12.70;99.90;;;;;;10456862;28;20091;-68
2023/01/01 12:38:34;;;;;;;4.28;1.02;;;12.60;99.90;;;;;;10467656;28;20033;-68
2023/01/01 12:43:42;;;;;;;6.93;0.90;;;12.60;99.90;;;;;;10451760;28;20033;-68
2023/01/01 12:48:51;;;;;;;5.90;1.00;;;12.60;99.90;;;;;;10475278;28;20021;-68
2023/01/01 12:54:06;;;;;;;4.18;1.20;;;12.50;99.90;;;;;;10458938;28;20021;-68
2023/01/01 12:59:21;;;;;;;5.75;0.88;;;12.60;99.90;;;;;;10472284;28;20086;-67
2023/01/01 13:04:22;;;;;;;2.05;0.82;;;12.60;99.90;;;;;;10473969;28;20052;-67
2023/01/01 13:09:29;;;;;;;5.20;1.23;;;12.50;99.90;;;;;;10465702;28;20117;-66
2023/01/01 13:14:36;;;;;;;5.78;1.13;;;13.50;99.90;;;;;;10470649;28;20029;-66
2023/01/01 13:19:36;;;;;;;4.47;0.90;;;12.50;99.90;;;;;;10472877;28;20025;-67
2023/01/01 13:24:37;;;;;;;4.32;1.30;;;12.50;99.90;;;;;;10477298;28;20033;-67
2023/01/01 13:29:43;;;;;;;3.90;1.30;;;12.50;99.90;;;;;;10476404;28;20032;-67
2023/01/01 13:35:00;;;;;;;5.40;1.23;;;12.60;99.90;;;;;;10483370;28;20032;-67
2023/01/01 13:40:11;;;;;;;6.03;1.17;;;12.80;99.90;;;;;;10467205;28;20574;-69
2023/01/01 13:45:21;;;;;;;9.52;1.30;;;12.50;99.90;;;;;;10470707;28;20024;-69
2023/01/01 13:50:59;;;;;;;4.18;1.23;;;12.60;99.90;;;;;;10474332;28;20013;-68
2023/01/01 13:56:57;;;;;;;4.82;1.40;;;12.60;99.90;;;;;;10473405;28;20109;-68
2023/01/01 14:02:22;;;;;;;5.10;1.20;;;12.60;99.90;;;;;;10313729;28;20038;-68
2023/01/01 14:07:47;;;;;;;6.82;1.33;;;12.60;99.90;;;;;;10451826;28;20173;-68
2023/01/01 14:12:49;;;;;;;6.45;1.60;;;12.60;99.90;;;;;;10532408;22;20121;-69
2023/01/01 14:17:53;;;;;;;3.80;1.10;;;12.90;99.90;;;;;;10520138;28;20028;-66
2023/01/01 14:22:53;;;;;;;4.80;1.30;;;12.60;99.90;;;;;;10525008;28;20028;-70
2023/01/01 14:27:57;;;;;;;8.52;1.52;;;12.50;99.90;;;;;;10520292;28;20392;-72
2023/01/01 14:33:00;;;;;;;7.57;1.58;;;12.50;99.90;;;;;;10520613;28;20040;-66
2023/01/01 14:38:26;;;;;;;7.40;1.58;;;12.50;99.90;;;;;;10520760;28;20184;-69
2023/01/01 14:43:26;;;;;;;5.90;1.20;;;12.50;99.90;;;;;;10512365;28;20480;-67
2023/01/01 14:48:27;;;;;;;3.83;1.10;;;12.50;99.90;;;;;;10520134;28;20020;-67
2023/01/01 14:53:32;;;;;;;6.15;1.80;;;12.50;99.90;;;;;;10518685;28;20090;-66
2023/01/01 14:58:34;;;;;;;5.20;1.45;;;12.40;99.90;;;;;;10508065;28;20015;-67
2023/01/01 15:03:35;;;;;;;5.32;1.30;;;12.40;99.90;;;;;;10516471;28;20024;-70
2023/01/01 15:08:36;;;;;;;5.90;1.40;;;12.40;99.90;;;;;;10510879;28;20048;-71
2023/01/01 15:13:36;;;;;;;5.68;1.50;;;12.40;99.90;;;;;;10516763;28;20036;-71
2023/01/01 15:18:40;;;;;;;3.42;1.25;;;12.40;99.90;;;;;;10511267;28;20020;-69
2023/01/01 15:24:03;;;;;;;7.60;1.65;;;12.30;99.90;;;;;;10518844;28;20224;-71
2023/01/01 15:29:08;;;;;;;6.00;1.60;;;12.60;99.90;;;;;;10504020;28;20021;-67
2023/01/01 15:34:29;;;;;;;6.25;1.73;;;12.40;99.90;;;;;;10507023;28;20028;-67
2023/01/01 15:39:30;;;;;;;7.63;1.58;;;12.30;99.90;;;;;;10511804;28;20035;-66
2023/01/01 15:44:35;;;;;;;5.13;2.00;;;12.30;99.90;;;;;;10516814;28;20043;-67
2023/01/01 15:49:36;;;;;;;3.97;1.20;;;12.30;99.90;;;;;;10519552;28;20027;-70
2023/01/01 15:54:38;;;;;;;5.80;1.38;;;12.20;99.90;;;;;;10517851;28;20028;-67
2023/01/01 15:59:42;;;;;;;5.85;1.15;;;12.30;99.90;;;;;;10516286;28;20412;-69
2023/01/01 16:04:48;;;;;;;5.25;1.50;;;12.30;99.90;;;;;;10514469;28;20021;-67
2023/01/01 16:09:50;;;;;;;7.07;1.42;;;12.20;99.90;;;;;;10512567;28;20026;-67
2023/01/01 16:14:51;;;;;;;5.95;1.42;;;12.20;99.90;;;;;;10505949;28;20549;-67
2023/01/01 16:19:53;;;;;;;3.95;1.70;;;12.30;99.90;;;;;;10509278;28;20021;-67
2023/01/01 16:24:54;;;;;;;6.43;1.75;;;12.30;99.90;;;;;;10507915;28;20074;-67
2023/01/01 16:29:54;;;;;;;3.60;1.33;;;12.20;99.90;;;;;;10510433;28;20552;-67
2023/01/01 16:34:55;;;;;;;5.38;1.35;;;12.10;99.90;;;;;;10520049;28;20032;-68
2023/01/01 16:39:56;;;;;;;2.67;0.95;;;12.20;99.90;;;;;;10515652;28;20024;-67
2023/01/01 16:44:57;;;;;;;5.32;2.03;;;12.20;99.90;;;;;;10520274;28;20532;-72
2023/01/01 16:49:58;;;;;;;3.40;1.35;;;12.20;99.90;;;;;;10518446;28;20044;-71
2023/01/01 16:54:58;;;;;;;5.85;1.50;;;12.20;99.90;;;;;;10522045;28;20032;-69
2023/01/01 16:59:59;;;;;;;5.32;1.30;;;12.10;99.90;;;;;;10504923;28;20028;-68
2023/01/01 17:04:59;;;;;;;6.47;1.60;;;12.60;99.90;;;;;;10519518;28;20028;-67
2023/01/01 17:10:00;;;;;;;4.00;1.20;;;12.20;99.90;;;;;;10518707;28;20442;-69
2023/01/01 17:15:00;;;;;;;4.97;1.45;;;12.10;99.90;;;;;;10522605;28;20032;-71
2023/01/01 17:20:02;;;;;;;3.30;1.20;;;12.10;99.90;;;;;;10518419;28;20760;-69
2023/01/01 17:25:03;;;;;;;3.72;1.40;;;12.10;99.90;;;;;;10518093;28;20452;-70
2023/01/01 17:30:04;;;;;;;3.53;1.45;;;12.10;99.90;;;;;;10516101;28;20055;-66
2023/01/01 17:35:06;;;;;;;5.25;1.70;;;12.10;99.90;;;;;;10518653;28;20043;-67
2023/01/01 17:40:07;;;;;;;4.07;1.40;;;12.10;99.90;;;;;;10521013;28;20024;-71
2023/01/01 17:45:08;;;;;;;4.55;1.50;;;12.10;99.90;;;;;;10516086;28;20782;-70
2023/01/01 17:50:09;;;;;;;2.70;1.20;;;12.10;99.90;;;;;;10514763;28;20050;-70
2023/01/01 17:55:09;;;;;;;3.95;1.60;;;12.10;99.90;;;;;;10512647;28;20036;-67
2023/01/01 18:00:10;;;;;;;9.18;2.17;;;12.10;99.90;;;;;;10515631;28;20165;-65
2023/01/01 18:05:11;;;;;;;6.13;2.50;;;12.10;99.90;;;;;;10517774;28;20017;-71
2023/01/01 18:10:12;;;;;;;5.25;1.65;;;12.10;99.90;;;;;;10517470;28;20051;-68
2023/01/01 18:15:12;;;;;;;4.95;1.83;;;12.10;99.90;;;;;;10525110;28;20167;-66
2023/01/01 18:20:13;;;;;;;5.57;1.70;;;12.10;99.90;;;;;;10508103;28;20024;-70
2023/01/01 18:25:14;;;;;;;6.68;1.90;;;12.10;99.90;;;;;;10512417;28;20042;-67
2023/01/01 18:30:15;;;;;;;7.82;2.05;;;12.10;99.90;;;;;;10518869;28;20034;-67
2023/01/01 18:35:16;;;;;;;5.47;1.95;;;12.10;99.90;;;;;;10514864;28;20043;-71
2023/01/01 18:40:16;;;;;;;5.38;2.35;;;12.00;99.90;;;;;;10511966;28;20020;-70
2023/01/01 18:45:19;;;;;;;7.75;2.28;;;12.10;99.90;;;;;;10505903;28;20019;-67
2023/01/01 18:50:26;;;;;;;6.40;1.90;;;12.00;99.90;;;;;;10514558;28;20065;-67
2023/01/01 18:55:26;;;;;;;4.03;2.20;;;12.00;99.90;;;;;;10517745;28;20071;-67
2023/01/01 19:00:29;;;;;;;5.00;2.28;;;12.10;99.90;;;;;;10511111;28;21289;-67
2023/01/01 19:05:33;;;;;;;8.40;2.60;;;12.00;99.90;;;;;;10518205;28;20490;-68
2023/01/01 19:11:03;;;;;;;10.90;2.60;;;12.00;99.90;;;;;;10508638;28;20041;-68
2023/01/01 19:16:22;;;;;;;5.63;2.13;;;12.00;99.90;;;;;;10506294;28;20036;-72
2023/01/01 19:21:23;;;;;;;6.95;1.92;;;12.00;99.90;;;;;;10508480;28;20017;-71
2023/01/01 19:26:35;;;;;;;12.27;3.53;;;12.10;99.90;;;;;;10515571;28;20384;-71
2023/01/01 19:31:36;;;;;;;4.15;2.22;;;12.00;99.90;;;;;;10509234;28;20036;-67
2023/01/01 19:36:36;;;;;;;6.15;2.47;;;12.00;99.90;;;;;;10510100;28;20016;-67
2023/01/01 19:41:37;;;;;;;5.15;2.22;;;12.00;99.90;;;;;;10509837;28;20031;-71
2023/01/01 19:46:38;;;;;;;6.90;3.03;;;12.00;99.90;;;;;;10515134;28;20024;-79
2023/01/01 19:51:39;;;;;;;9.52;2.90;;;12.00;99.90;;;;;;10509340;28;20115;-66
2023/01/01 19:56:39;;;;;;;6.45;2.45;;;12.00;99.90;;;;;;10511459;28;20249;-66
2023/01/01 20:01:40;;;;;;;8.00;2.65;;;12.10;99.90;;;;;;10519328;28;20149;-65
2023/01/01 20:06:41;;;;;;;7.75;2.10;;;12.00;99.90;;;;;;10526784;28;20020;-65
2023/01/01 20:11:41;;;;;;;6.05;2.30;;;12.00;99.90;;;;;;10515055;28;20036;-66
2023/01/01 20:16:43;;;;;;;6.65;2.80;;;12.00;99.90;;;;;;10517894;28;20028;-66
2023/01/01 20:27:22;;;;;;;5.82;2.80;;;11.90;99.90;;;;;;10516143;28;20047;-66
2023/01/01 20:32:23;;;;;;;;;;;12.00;99.90;;;;;;10523383;28;20489;-65
2023/01/01 20:37:36;;;;;;;6.13;2.75;;;11.90;99.90;;;;;;10523412;28;19985;-65
2023/01/01 20:42:36;;;;;;;6.30;2.85;;;11.90;99.90;;;;;;10529323;28;20107;-66
2023/01/01 20:47:38;;;;;;;6.63;3.28;;;12.30;99.90;;;;;;10516347;28;20020;-65
2023/01/01 20:52:38;;;;;;;7.70;2.90;;;11.90;99.90;;;;;;10521512;28;20024;-66
2023/01/01 20:57:39;;;;;;;6.80;3.08;;;11.90;99.90;;;;;;10517519;22;20419;-65
2023/01/01 21:02:39;;;;;;;8.88;2.97;;;11.90;99.90;;;;;;10475498;28;20052;-65
2023/01/01 21:07:40;;;;;;;5.65;3.08;;;11.90;99.90;;;;;;10484546;28;20032;-65
2023/01/01 21:12:40;;;;;;;6.22;2.70;;;11.90;99.90;;;;;;10488016;28;20033;-66
2023/01/01 21:17:41;;;;;;;5.68;2.70;;;11.90;99.90;;;;;;10470373;28;20377;-66
2023/01/01 21:22:44;;;;;;;5.97;2.90;;;11.90;99.90;;;;;;10460905;28;20040;-66
2023/01/01 21:27:44;;;;;;;5.22;2.88;;;11.90;99.90;;;;;;10479876;28;20423;-66
2023/01/01 21:32:47;;;;;;;7.43;2.70;;;11.90;99.90;;;;;;10465734;28;20120;-64
2023/01/01 21:37:52;;;;;;;4.57;2.60;;;11.90;99.90;;;;;;10483052;28;20489;-64
2023/01/01 21:42:57;;;;;;;4.50;2.88;;;11.90;99.90;;;;;;10478401;28;20046;-65
2023/01/01 21:48:15;;;;;;;5.10;2.80;;;11.90;99.90;;;;;;10474628;28;20115;-65
2023/01/01 21:53:26;;;;;;;5.95;2.58;;;11.90;99.90;;;;;;10473385;28;20063;-64
2023/01/01 22:04:08;;;;;;;4.45;2.67;;;11.90;99.90;;;;;;10471949;28;20495;-64
2023/01/01 22:09:31;;;;;;;5.80;2.88;;;11.90;99.90;;;;;;10471430;28;20020;-65
2023/01/01 22:14:36;;;;;;;7.53;2.75;;;11.90;99.90;;;;;;10482128;28;20390;-65
2023/01/01 22:19:37;;;;;;;5.03;2.67;;;11.90;99.90;;;;;;10478006;28;20063;-65
2023/01/01 22:24:38;;;;;;;9.50;3.13;;;11.90;99.90;;;;;;10482296;28;20048;-62
2023/01/01 22:29:38;;;;;;;5.82;2.67;;;11.90;99.90;;;;;;10454454;28;20043;-65
2023/01/01 22:34:39;;;;;;;3.45;2.17;;;11.80;99.90;;;;;;10478350;28;20353;-63
2023/01/01 22:39:41;;;;;;;4.55;2.20;;;11.80;99.90;;;;;;10473877;28;20266;-63
2023/01/01 22:44:42;;;;;;;9.73;2.42;;;11.80;99.90;;;;;;10473231;28;20032;-63
2023/01/01 22:49:50;;;;;;;4.40;2.55;;;11.80;99.90;;;;;;10476290;28;20020;-67
2023/01/01 22:54:50;;;;;;;4.88;2.38;;;11.80;99.90;;;;;;10469473;28;20040;-64
2023/01/01 22:59:51;;;;;;;6.03;2.42;;;11.80;99.90;;;;;;10473156;28;20422;-63
2023/01/01 23:04:52;;;;;;;5.75;2.25;;;11.80;99.90;;;;;;10472451;28;20040;-67
2023/01/01 23:09:54;;;;;;;3.65;2.15;;;11.80;99.90;;;;;;10471255;28;20107;-66
2023/01/01 23:20:14;;;;;;;3.42;2.60;;;11.90;99.90;;;;;;10457839;28;20027;-66
2023/01/01 23:25:18;;;;;;;5.50;2.45;;;11.80;99.90;;;;;;10469818;28;20425;-64
2023/01/01 23:30:20;;;;;;;4.30;2.47;;;11.80;99.90;;;;;;10465680;28;20419;-67
2023/01/01 23:35:20;;;;;;;4.25;2.33;;;11.80;99.90;;;;;;10461031;28;20136;-65
2023/01/01 23:40:21;;;;;;;5.30;2.10;;;11.80;99.90;;;;;;10465158;28;20020;-64
2023/01/01 23:45:21;;;;;;;3.97;2.53;;;11.80;99.90;;;;;;10449034;28;20108;-63
2023/01/01 23:50:22;;;;;;;3.08;1.95;;;11.80;99.90;;;;;;10479207;28;20397;-65
2023/01/01 23:55:23;;;;;;;4.65;2.60;;;11.80;99.90;;;;;;10456955;28;20076;-66
